createdAt,value
2019-03-12T00:00:33.699Z,2.60
2019-03-12T00:02:59.940Z,2.83
2019-03-12T00:05:26.062Z,2.13
2019-03-12T00:07:52.291Z,2.63
2019-03-12T00:10:18.419Z,2.77
2019-03-12T00:12:44.672Z,2.60
2019-03-12T00:15:10.751Z,2.60
2019-03-12T00:17:36.887Z,3.27
2019-03-12T00:20:04.594Z,3.27
2019-03-12T00:22:30.741Z,3.10
2019-03-12T00:24:59.775Z,3.70
2019-03-12T00:27:25.966Z,3.37
2019-03-12T00:29:52.094Z,3.53
2019-03-12T00:32:18.245Z,3.77
2019-03-12T00:34:44.371Z,4.03
2019-03-12T00:37:10.491Z,3.80
2019-03-12T00:39:36.632Z,3.70
2019-03-12T00:42:02.946Z,3.90
2019-03-12T00:44:29.174Z,3.37
2019-03-12T00:46:55.263Z,3.40
2019-03-12T00:49:21.436Z,4.13
2019-03-12T00:51:47.665Z,3.57
2019-03-12T00:54:13.788Z,3.33
2019-03-12T00:56:41.524Z,3.20
2019-03-12T00:59:07.683Z,3.17
2019-03-12T01:01:33.779Z,3.03
2019-03-12T01:04:03.198Z,2.70
2019-03-12T01:06:29.479Z,3.20
2019-03-12T01:08:55.656Z,2.83
2019-03-12T01:11:21.786Z,2.43
2019-03-12T01:13:47.927Z,2.43
2019-03-12T01:16:14.112Z,2.43
2019-03-12T01:18:40.309Z,2.30
2019-03-12T01:21:06.432Z,2.87
2019-03-12T01:23:37.478Z,2.47
2019-03-12T01:26:03.860Z,3.03
2019-03-12T01:28:29.951Z,2.57
2019-03-12T01:30:56.079Z,2.27
2019-03-12T01:33:22.181Z,2.23
2019-03-12T01:35:48.317Z,2.90
2019-03-12T01:38:16.440Z,2.83
2019-03-12T01:40:42.572Z,2.23
2019-03-12T01:43:10.882Z,2.20
2019-03-12T01:45:37.009Z,2.50
2019-03-12T01:48:03.308Z,2.73
2019-03-12T01:50:29.560Z,1.90
2019-03-12T01:52:55.736Z,2.53
2019-03-12T01:55:22.002Z,2.20
2019-03-12T01:57:48.207Z,2.30
2019-03-12T02:00:18.662Z,2.40
2019-03-12T02:02:47.345Z,2.77
2019-03-12T02:05:13.559Z,1.93
2019-03-12T02:07:39.922Z,1.90
2019-03-12T02:10:09.060Z,3.17
2019-03-12T02:12:37.295Z,2.50
2019-03-12T02:15:08.560Z,2.53
2019-03-12T02:17:34.793Z,2.73
2019-03-12T02:20:00.942Z,2.27
2019-03-12T02:22:27.087Z,2.70
2019-03-12T02:24:55.125Z,2.70
2019-03-12T02:27:21.424Z,2.97
2019-03-12T02:29:48.822Z,3.00
2019-03-12T02:32:15.151Z,2.83
2019-03-12T02:34:41.372Z,3.40
2019-03-12T02:37:07.539Z,3.17
2019-03-12T02:39:36.776Z,3.80
2019-03-12T02:42:03.010Z,4.00
2019-03-12T02:44:31.483Z,4.00
2019-03-12T02:46:57.590Z,4.70
2019-03-12T02:49:23.717Z,4.77
2019-03-12T02:51:49.932Z,5.83
2019-03-12T02:54:16.209Z,6.00
2019-03-12T02:56:42.406Z,5.57
2019-03-12T02:59:08.778Z,6.37
2019-03-12T03:01:34.957Z,6.17
2019-03-12T03:04:01.188Z,8.17
2019-03-12T03:06:34.967Z,7.53
2019-03-12T03:09:01.109Z,7.63
2019-03-12T03:11:27.339Z,8.07
2019-03-12T03:13:53.490Z,7.57
2019-03-12T03:16:23.693Z,7.07
2019-03-12T03:18:47.726Z,7.83
2019-03-12T03:21:13.955Z,8.93
2019-03-12T03:23:40.125Z,8.07
2019-03-12T03:26:06.306Z,7.87
2019-03-12T03:28:32.420Z,8.30
2019-03-12T03:30:58.612Z,9.00
2019-03-12T03:33:24.711Z,8.00
2019-03-12T03:35:50.845Z,9.03
2019-03-12T03:38:16.971Z,8.93
2019-03-12T03:40:43.118Z,9.27
2019-03-12T03:43:09.344Z,7.77
2019-03-12T03:45:36.818Z,7.03
2019-03-12T03:48:03.313Z,7.70
2019-03-12T03:50:29.617Z,7.90
2019-03-12T03:52:55.731Z,7.47
2019-03-12T03:55:21.965Z,6.90
2019-03-12T03:57:48.175Z,7.57
2019-03-12T04:00:19.042Z,6.97
2019-03-12T04:02:46.721Z,6.97
2019-03-12T04:05:13.093Z,7.20
2019-03-12T04:07:39.332Z,7.50
2019-03-12T04:10:08.160Z,7.07
2019-03-12T04:12:34.376Z,9.00
2019-03-12T04:15:00.582Z,7.60
2019-03-12T04:17:26.693Z,7.47
2019-03-12T04:19:54.744Z,7.20
2019-03-12T04:22:20.868Z,7.30
2019-03-12T04:24:47.080Z,6.37
2019-03-12T04:27:13.226Z,6.00
2019-03-12T04:29:39.445Z,6.43
2019-03-12T04:32:06.890Z,6.07
2019-03-12T04:34:32.987Z,5.83
2019-03-12T04:37:01.010Z,6.13
2019-03-12T04:39:27.202Z,6.00
2019-03-12T04:41:53.428Z,6.37
2019-03-12T04:44:19.532Z,6.73
2019-03-12T04:46:48.703Z,6.20
2019-03-12T04:49:14.805Z,6.17
2019-03-12T04:51:41.049Z,6.60
2019-03-12T04:54:07.263Z,6.37
2019-03-12T04:56:33.404Z,5.97
2019-03-12T04:58:59.513Z,6.57
2019-03-12T05:01:25.716Z,6.63
2019-03-12T05:03:51.975Z,6.60
2019-03-12T05:06:19.773Z,5.57
2019-03-12T05:08:46.113Z,6.37
2019-03-12T05:11:12.363Z,5.90
2019-03-12T05:13:38.508Z,5.60
2019-03-12T05:16:04.603Z,5.20
2019-03-12T05:18:30.759Z,4.50
2019-03-12T05:20:56.947Z,4.87
2019-03-12T05:23:23.108Z,4.77
2019-03-12T05:25:49.187Z,5.33
2019-03-12T05:28:15.341Z,4.50
2019-03-12T05:30:41.440Z,4.80
2019-03-12T05:33:07.679Z,4.73
2019-03-12T05:35:33.777Z,4.50
2019-03-12T05:37:59.915Z,4.00
2019-03-12T05:40:26.033Z,4.97
2019-03-12T05:42:52.253Z,4.30
2019-03-12T05:45:18.577Z,3.90
2019-03-12T05:47:44.785Z,4.10
2019-03-12T05:50:17.901Z,4.17
2019-03-12T05:52:44.110Z,4.30
2019-03-12T05:55:13.052Z,4.27
2019-03-12T05:57:41.082Z,4.17
2019-03-12T06:00:13.397Z,4.17
2019-03-12T06:02:39.499Z,4.27
2019-03-12T06:05:08.432Z,4.70
2019-03-12T06:07:34.540Z,4.70
2019-03-12T06:10:00.940Z,4.57
2019-03-12T06:12:27.052Z,4.93
2019-03-12T06:14:53.182Z,4.93
2019-03-12T06:17:19.296Z,5.40
2019-03-12T06:19:45.451Z,5.23
2019-03-12T06:22:12.309Z,5.80
2019-03-12T06:24:38.518Z,5.50
2019-03-12T06:27:04.643Z,5.60
2019-03-12T06:29:30.859Z,5.77
2019-03-12T06:32:11.233Z,5.97
2019-03-12T06:34:39.244Z,6.60
2019-03-12T06:37:07.289Z,6.77
2019-03-12T06:39:35.419Z,6.23
2019-03-12T06:42:03.461Z,6.50
2019-03-12T06:44:31.526Z,6.00
2019-03-12T06:47:18.738Z,6.00
2019-03-12T06:49:53.055Z,6.90
2019-03-12T06:52:24.052Z,5.73
2019-03-12T06:54:54.838Z,6.53
2019-03-12T06:57:22.893Z,6.10
2019-03-12T06:59:50.904Z,6.03
2019-03-12T07:02:31.294Z,5.23
2019-03-12T07:05:04.337Z,6.27
2019-03-12T07:07:41.715Z,5.87
2019-03-12T07:10:26.643Z,5.30
2019-03-12T07:13:06.615Z,5.50
2019-03-12T07:15:37.350Z,4.80
2019-03-12T07:18:05.493Z,5.57
2019-03-12T07:20:33.634Z,5.53
2019-03-12T07:23:01.652Z,5.00
2019-03-12T07:25:29.691Z,6.00
2019-03-12T07:28:12.119Z,5.97
2019-03-12T07:30:49.379Z,5.43
2019-03-12T07:33:17.470Z,5.00
2019-03-12T07:35:45.604Z,4.90
2019-03-12T07:38:16.754Z,4.60
2019-03-12T07:41:01.571Z,4.73
2019-03-12T07:43:32.592Z,4.23
2019-03-12T07:46:00.722Z,4.47
2019-03-12T07:48:45.751Z,4.37
2019-03-12T07:51:19.769Z,3.33
2019-03-12T07:53:59.337Z,4.50
2019-03-12T07:56:26.729Z,4.20
2019-03-12T07:58:57.502Z,4.00
2019-03-12T08:01:36.582Z,3.53
2019-03-12T08:04:11.090Z,4.17
2019-03-12T08:06:48.084Z,4.00
2019-03-12T08:09:19.061Z,4.30
2019-03-12T08:11:49.859Z,4.30
2019-03-12T08:14:20.731Z,4.10
2019-03-12T08:16:54.982Z,3.70
2019-03-12T08:19:23.039Z,3.10
2019-03-12T08:21:53.000Z,3.30
2019-03-12T08:24:21.155Z,3.60
2019-03-12T08:26:51.159Z,3.17
2019-03-12T08:29:25.131Z,3.90
2019-03-12T08:32:05.136Z,3.43
2019-03-12T08:34:49.880Z,2.77
2019-03-12T08:37:29.908Z,2.30
2019-03-12T08:39:57.958Z,3.10
2019-03-12T08:42:28.727Z,2.73
2019-03-12T08:45:02.433Z,2.70
2019-03-12T08:47:47.508Z,2.33
2019-03-12T08:50:21.331Z,3.40
2019-03-12T08:52:49.372Z,2.97
2019-03-12T08:55:26.752Z,2.47
2019-03-12T08:57:54.843Z,2.60
2019-03-12T09:00:25.625Z,2.70
2019-03-12T09:02:56.811Z,2.57
2019-03-12T09:05:24.951Z,2.20
2019-03-12T09:07:55.772Z,2.70
2019-03-12T09:10:38.954Z,2.57
2019-03-12T09:13:24.981Z,3.00
2019-03-12T09:15:55.988Z,2.40
2019-03-12T09:18:24.015Z,2.57
2019-03-12T09:20:52.067Z,2.60
2019-03-12T09:23:36.785Z,2.07
2019-03-12T09:26:14.160Z,3.07
2019-03-12T09:28:59.013Z,2.43
2019-03-12T09:31:38.998Z,3.10
2019-03-12T09:34:25.293Z,2.10
2019-03-12T09:37:02.923Z,2.73
2019-03-12T09:39:31.116Z,3.00
2019-03-12T09:41:59.273Z,2.23
2019-03-12T09:44:44.194Z,2.47
2019-03-12T09:47:18.115Z,2.40
2019-03-12T09:49:46.241Z,2.53
2019-03-12T09:52:17.354Z,2.60
2019-03-12T09:54:54.575Z,2.00
2019-03-12T09:57:22.634Z,2.53
2019-03-12T09:59:53.466Z,2.40
2019-03-12T10:02:27.248Z,2.03
2019-03-12T10:05:01.102Z,2.13
2019-03-12T10:07:41.254Z,2.53
2019-03-12T10:10:13.373Z,2.33
2019-03-12T10:12:50.656Z,2.30
2019-03-12T10:15:21.429Z,2.50
2019-03-12T10:17:49.609Z,1.97
2019-03-12T10:20:33.983Z,2.40
2019-03-12T10:23:04.821Z,2.20
2019-03-12T10:25:32.887Z,2.17
2019-03-12T10:28:01.063Z,1.80
2019-03-12T10:30:29.156Z,2.57
2019-03-12T10:33:03.533Z,2.17
2019-03-12T10:35:31.730Z,1.97
2019-03-12T10:38:29.478Z,2.53
2019-03-12T10:41:00.563Z,2.77
2019-03-12T10:43:28.580Z,1.60
2019-03-12T10:45:59.353Z,2.53
2019-03-12T10:48:25.672Z,1.90
2019-03-12T10:50:51.978Z,2.47
2019-03-12T10:53:18.206Z,2.50
2019-03-12T10:55:44.440Z,2.40
2019-03-12T10:58:10.599Z,2.00
2019-03-12T11:00:37.033Z,2.87
2019-03-12T11:03:03.340Z,2.50
2019-03-12T11:05:29.570Z,2.67
2019-03-12T11:07:55.675Z,2.70
2019-03-12T11:10:22.024Z,3.07
2019-03-12T11:12:48.355Z,4.00
2019-03-12T11:15:15.249Z,3.67
2019-03-12T11:17:49.554Z,3.63
2019-03-12T11:20:19.122Z,3.37
2019-03-12T11:22:45.498Z,4.60
2019-03-12T11:25:11.794Z,3.73
2019-03-12T11:27:38.164Z,4.23
2019-03-12T11:30:11.174Z,4.03
2019-03-12T11:32:37.318Z,3.40
2019-03-12T11:35:05.521Z,3.10
2019-03-12T11:37:31.651Z,3.20
2019-03-12T11:39:57.744Z,3.60
2019-03-12T11:42:23.985Z,3.90
2019-03-12T11:44:50.197Z,3.57
2019-03-12T11:47:16.398Z,3.43
2019-03-12T11:49:42.607Z,3.10
2019-03-12T11:52:09.003Z,3.13
2019-03-12T11:54:35.148Z,3.07
2019-03-12T11:57:01.326Z,2.73
2019-03-12T11:59:27.577Z,2.80
2019-03-12T12:01:54.037Z,2.87
2019-03-12T12:04:20.335Z,2.43
2019-03-12T12:06:46.578Z,2.53
2019-03-12T12:09:13.459Z,2.47
2019-03-12T12:11:39.942Z,2.50
2019-03-12T12:14:06.166Z,2.60
2019-03-12T12:16:32.251Z,2.30
2019-03-12T12:18:58.525Z,3.00
2019-03-12T12:21:24.672Z,2.30
2019-03-12T12:23:50.800Z,2.63
2019-03-12T12:26:17.114Z,2.10
2019-03-12T12:28:43.251Z,2.30
2019-03-12T12:31:09.561Z,2.37
2019-03-12T12:33:35.903Z,2.67
2019-03-12T12:36:03.946Z,2.17
2019-03-12T12:38:30.094Z,2.20
2019-03-12T12:40:56.273Z,1.80
2019-03-12T12:43:22.409Z,2.83
2019-03-12T12:45:48.741Z,2.33
2019-03-12T12:48:14.983Z,2.47
2019-03-12T12:50:43.095Z,2.30
2019-03-12T12:53:09.423Z,2.10
2019-03-12T12:55:35.663Z,2.37
2019-03-12T12:58:01.863Z,2.10
2019-03-12T13:00:28.402Z,2.00
2019-03-12T13:02:54.624Z,2.20
2019-03-12T13:05:20.995Z,2.30
2019-03-12T13:07:47.173Z,2.00
2019-03-12T13:10:24.182Z,2.20
2019-03-12T13:12:50.618Z,2.20
2019-03-12T13:15:16.962Z,2.27
2019-03-12T13:17:43.267Z,3.00
2019-03-12T13:20:09.598Z,1.77
2019-03-12T13:22:35.910Z,2.20
2019-03-12T13:25:04.684Z,2.33
2019-03-12T13:27:41.729Z,2.70
2019-03-12T13:29:59.107Z,2.53
2019-03-12T13:32:25.351Z,2.37
2019-03-12T13:34:51.576Z,2.50
2019-03-12T13:37:17.811Z,1.97
2019-03-12T13:39:44.079Z,3.17
2019-03-12T13:42:10.367Z,3.00
2019-03-12T13:44:36.584Z,2.50
2019-03-12T13:47:03.405Z,3.17
2019-03-12T13:49:29.608Z,4.03
2019-03-12T13:51:55.847Z,2.07
2019-03-12T13:54:22.265Z,14.10
2019-03-12T13:56:48.664Z,5.73
2019-03-12T13:59:14.934Z,6.43
2019-03-12T14:01:41.155Z,14.50
2019-03-12T14:04:10.684Z,4.57
2019-03-12T14:06:37.583Z,3.00
2019-03-12T14:09:03.933Z,2.43
2019-03-12T14:11:30.197Z,2.13
2019-03-12T14:13:56.462Z,4.07
2019-03-12T14:16:22.859Z,3.37
2019-03-12T14:18:49.065Z,3.33
2019-03-12T14:21:15.275Z,5.10
2019-03-12T14:23:54.323Z,3.50
2019-03-12T14:26:20.538Z,2.20
2019-03-12T14:28:46.753Z,2.20
2019-03-12T14:31:13.108Z,3.37
2019-03-12T14:33:39.435Z,2.00
2019-03-12T14:36:05.544Z,3.17
2019-03-12T14:38:31.870Z,2.80
2019-03-12T14:40:58.203Z,2.03
2019-03-12T14:43:26.341Z,4.37
2019-03-12T14:45:52.760Z,12.23
2019-03-12T14:48:42.615Z,2.60
2019-03-12T14:51:21.677Z,2.73
2019-03-12T14:53:51.625Z,2.90
2019-03-12T14:56:17.959Z,4.80
2019-03-12T14:58:44.076Z,2.17
2019-03-12T15:01:10.421Z,1.90
2019-03-12T15:03:36.632Z,3.33
2019-03-12T15:06:03.076Z,3.00
2019-03-12T15:08:29.186Z,2.47
2019-03-12T15:10:55.557Z,2.83
2019-03-12T15:13:21.858Z,1.60
2019-03-12T15:15:48.300Z,3.10
2019-03-12T15:18:14.427Z,1.73
2019-03-12T15:20:40.872Z,4.43
2019-03-12T15:23:07.072Z,2.00
2019-03-12T15:25:33.217Z,2.50
2019-03-12T15:27:59.670Z,1.90
2019-03-12T15:30:27.180Z,2.37
2019-03-12T15:32:53.401Z,2.07
2019-03-12T15:35:19.755Z,1.63
2019-03-12T15:37:46.939Z,1.60
2019-03-12T15:40:13.420Z,2.50
2019-03-12T15:42:39.812Z,1.97
2019-03-12T15:45:08.540Z,2.37
2019-03-12T15:47:38.824Z,1.87
2019-03-12T15:50:09.508Z,2.43
2019-03-12T15:52:33.918Z,1.70
2019-03-12T15:55:00.115Z,1.93
2019-03-12T15:57:26.246Z,1.73
2019-03-12T15:59:52.355Z,1.97
2019-03-12T16:02:18.624Z,2.03
2019-03-12T16:04:44.939Z,1.50
2019-03-12T16:07:11.061Z,2.30
2019-03-12T16:09:37.169Z,2.17
2019-03-12T16:12:03.642Z,1.80
2019-03-12T16:14:29.998Z,2.30
2019-03-12T16:16:56.258Z,1.70
2019-03-12T16:19:22.388Z,1.87
2019-03-12T16:21:48.552Z,1.53
2019-03-12T16:24:15.043Z,1.87
2019-03-12T16:26:41.247Z,1.57
2019-03-12T16:29:07.393Z,1.87
2019-03-12T16:31:33.559Z,1.77
2019-03-12T16:33:59.979Z,2.97
2019-03-12T16:36:26.201Z,1.50
2019-03-12T16:38:52.539Z,1.83
2019-03-12T16:41:18.744Z,3.47
2019-03-12T16:43:45.044Z,2.20
2019-03-12T16:46:11.257Z,2.20
2019-03-12T16:48:38.681Z,2.53
2019-03-12T16:51:05.349Z,3.17
2019-03-12T16:53:31.698Z,2.30
2019-03-12T16:55:57.923Z,2.20
2019-03-12T16:58:24.067Z,2.70
2019-03-12T17:00:50.288Z,2.23
2019-03-12T17:03:16.641Z,3.70
2019-03-12T17:05:42.952Z,2.93
2019-03-12T17:08:09.219Z,3.07
2019-03-12T17:10:35.448Z,2.43
2019-03-12T17:13:01.578Z,1.80
2019-03-12T17:15:28.817Z,1.50
2019-03-12T17:17:54.950Z,1.47
2019-03-12T17:20:21.276Z,1.47
2019-03-12T17:22:47.529Z,1.60
2019-03-12T17:25:13.962Z,1.70
2019-03-12T17:27:40.295Z,1.90
2019-03-12T17:30:15.329Z,4.50
2019-03-12T17:32:41.638Z,3.60
2019-03-12T17:35:10.777Z,5.00
2019-03-12T17:37:37.088Z,1.83
2019-03-12T17:40:12.576Z,2.43
2019-03-12T17:42:38.819Z,1.83
2019-03-12T17:45:07.604Z,1.60
2019-03-12T17:47:33.861Z,1.10
2019-03-12T17:50:00.004Z,1.73
2019-03-12T17:52:26.230Z,1.90
2019-03-12T17:54:52.452Z,1.53
2019-03-12T17:57:18.919Z,1.60
2019-03-12T17:59:47.054Z,3.37
2019-03-12T18:02:13.361Z,1.57
2019-03-12T18:04:47.279Z,1.13
2019-03-12T18:07:13.452Z,1.53
2019-03-12T18:09:41.547Z,1.43
2019-03-12T18:12:07.924Z,1.50
2019-03-12T18:14:34.013Z,1.20
2019-03-12T18:17:00.389Z,1.30
2019-03-12T18:19:26.622Z,1.60
2019-03-12T18:21:52.839Z,1.10
2019-03-12T18:24:19.101Z,1.00
2019-03-12T18:26:45.327Z,1.40
2019-03-12T18:29:11.547Z,1.43
2019-03-12T18:31:39.547Z,1.70
2019-03-12T18:34:05.665Z,1.60
2019-03-12T18:36:31.975Z,2.20
2019-03-12T18:39:02.726Z,1.70
2019-03-12T18:41:26.237Z,2.80
2019-03-12T18:43:52.401Z,3.63
2019-03-12T18:46:18.634Z,2.20
2019-03-12T18:48:44.907Z,1.53
2019-03-12T18:51:11.110Z,6.47
2019-03-12T18:53:37.451Z,5.70
2019-03-12T18:56:03.808Z,2.57
2019-03-12T18:58:30.075Z,3.87
2019-03-12T19:00:58.995Z,2.00
2019-03-12T19:03:25.246Z,17.97
2019-03-12T19:05:51.368Z,28.53
2019-03-12T19:08:17.651Z,16.90
2019-03-12T19:10:44.079Z,53.10
2019-03-12T19:13:10.461Z,38.67
2019-03-12T19:15:36.855Z,4.73
2019-03-12T19:18:03.206Z,3.87
2019-03-12T19:20:32.752Z,2.33
2019-03-12T19:22:57.574Z,1.90
2019-03-12T19:25:30.434Z,1.67
2019-03-12T19:28:00.074Z,2.13
2019-03-12T19:30:25.061Z,1.87
2019-03-12T19:32:53.265Z,5.93
2019-03-12T19:35:27.804Z,1.97
2019-03-12T19:37:54.529Z,1.70
2019-03-12T19:40:33.273Z,1.53
2019-03-12T19:42:59.472Z,2.67
2019-03-12T19:45:25.658Z,3.50
2019-03-12T19:47:51.885Z,1.77
2019-03-12T19:50:19.537Z,2.37
2019-03-12T19:52:45.934Z,2.40
2019-03-12T19:55:15.893Z,4.37
2019-03-12T19:57:42.121Z,2.80
2019-03-12T20:00:14.541Z,3.43
2019-03-12T20:02:41.568Z,3.20
2019-03-12T20:05:09.757Z,3.43
2019-03-12T20:07:36.092Z,2.67
2019-03-12T20:10:42.802Z,3.63
2019-03-12T20:13:44.925Z,2.70
2019-03-12T20:16:21.222Z,9.73
2019-03-12T20:18:51.141Z,2.50
2019-03-12T20:21:37.941Z,2.33
2019-03-12T20:24:38.310Z,1.90
2019-03-12T20:27:23.599Z,2.70
2019-03-12T20:29:53.644Z,2.10
2019-03-12T20:32:24.074Z,2.90
2019-03-12T20:35:09.299Z,2.70
2019-03-12T20:37:57.140Z,2.07
2019-03-12T20:40:30.079Z,2.63
2019-03-12T20:43:30.668Z,2.03
2019-03-12T20:46:18.435Z,1.67
2019-03-12T20:49:11.234Z,1.30
2019-03-12T20:52:05.012Z,1.60
2019-03-12T20:55:08.516Z,1.20
2019-03-12T20:58:04.617Z,1.40
2019-03-12T21:01:08.238Z,2.20
2019-03-12T21:04:13.088Z,1.23
2019-03-12T21:06:48.540Z,1.40
2019-03-12T21:09:21.291Z,1.70
2019-03-12T21:12:05.827Z,1.40
2019-03-12T21:15:09.346Z,1.53
2019-03-12T21:18:00.395Z,1.20
2019-03-12T21:20:47.212Z,1.60
2019-03-12T21:23:42.904Z,1.63
2019-03-12T21:26:29.356Z,1.10
2019-03-12T21:29:02.411Z,1.80
2019-03-12T21:31:30.691Z,1.27
2019-03-12T21:33:58.096Z,1.80
2019-03-12T21:36:24.391Z,1.40
2019-03-12T21:38:50.724Z,1.57
2019-03-12T21:41:17.149Z,1.50
2019-03-12T21:43:43.416Z,1.23
2019-03-12T21:46:09.699Z,1.80
2019-03-12T21:48:35.978Z,2.43
2019-03-12T21:51:05.148Z,2.53
2019-03-12T21:53:31.345Z,1.80
2019-03-12T21:55:57.792Z,1.90
2019-03-12T21:58:24.079Z,1.60
2019-03-12T22:00:50.319Z,0.93
2019-03-12T22:03:16.708Z,1.60
2019-03-12T22:05:43.198Z,1.40
2019-03-12T22:08:09.398Z,1.40
2019-03-12T22:10:35.530Z,1.23
2019-03-12T22:13:01.677Z,1.30
2019-03-12T22:15:29.784Z,1.57
2019-03-12T22:17:56.034Z,1.67
2019-03-12T22:20:22.177Z,1.73
2019-03-12T22:23:08.711Z,1.57
2019-03-12T22:25:34.863Z,1.20
2019-03-12T22:28:01.053Z,1.60
2019-03-12T22:30:28.086Z,1.30
2019-03-12T22:32:54.311Z,1.50
2019-03-12T22:35:20.520Z,1.30
2019-03-12T22:37:48.572Z,1.20
2019-03-12T22:40:14.853Z,1.30
2019-03-12T22:42:40.983Z,1.50
2019-03-12T22:45:08.894Z,1.70
2019-03-12T22:47:35.049Z,1.80
2019-03-12T22:50:01.439Z,1.53
2019-03-12T22:52:27.872Z,1.10
2019-03-12T22:54:57.027Z,1.90
2019-03-12T22:57:23.257Z,1.30
2019-03-12T22:59:49.355Z,0.90
2019-03-12T23:02:15.698Z,1.23
2019-03-12T23:04:41.837Z,1.00
2019-03-12T23:07:08.168Z,0.70
2019-03-12T23:09:34.376Z,0.60
2019-03-12T23:12:00.682Z,0.80
2019-03-12T23:14:26.999Z,0.50
2019-03-12T23:16:53.243Z,0.33
2019-03-12T23:19:19.476Z,0.50
2019-03-12T23:21:45.779Z,0.50
2019-03-12T23:24:12.070Z,0.40
2019-03-12T23:26:38.376Z,0.40
2019-03-12T23:29:04.635Z,0.60
2019-03-12T23:31:31.043Z,0.70
2019-03-12T23:33:57.280Z,0.50
2019-03-12T23:36:23.382Z,0.70
2019-03-12T23:38:49.532Z,0.90
2019-03-12T23:41:15.753Z,1.00
2019-03-12T23:43:42.092Z,0.90
2019-03-12T23:46:08.441Z,1.03
2019-03-12T23:48:34.752Z,1.27
2019-03-12T23:51:00.955Z,1.47
2019-03-12T23:53:27.173Z,2.20
2019-03-12T23:55:53.873Z,2.43
2019-03-12T23:58:23.435Z,2.87
